createdAt,value
2022-10-12T00:00:05.541Z,6.90
2022-10-12T00:01:05.518Z,7.50
2022-10-12T00:02:05.584Z,7.90
2022-10-12T00:03:05.498Z,7.50
2022-10-12T00:04:05.490Z,7.90
2022-10-12T00:05:05.490Z,7.50
2022-10-12T00:06:05.480Z,7.50
2022-10-12T00:07:05.469Z,8.20
2022-10-12T00:08:05.440Z,7.70
2022-10-12T00:09:05.430Z,7.60
2022-10-12T00:10:05.469Z,7.60
2022-10-12T00:11:05.410Z,7.90
2022-10-12T00:12:05.455Z,8.00
2022-10-12T00:13:05.390Z,7.60
2022-10-12T00:14:05.379Z,7.30
2022-10-12T00:15:05.371Z,7.90
2022-10-12T00:16:05.543Z,8.00
2022-10-12T00:17:05.369Z,8.30
2022-10-12T00:18:05.345Z,8.40
2022-10-12T00:19:05.328Z,7.40
2022-10-12T00:20:05.539Z,7.80
2022-10-12T00:21:05.303Z,7.40
2022-10-12T00:22:05.321Z,7.70
2022-10-12T00:23:05.296Z,7.40
2022-10-12T00:24:05.278Z,7.90
2022-10-12T00:25:05.275Z,8.00
2022-10-12T00:26:05.309Z,9.70
2022-10-12T00:27:05.261Z,8.00
2022-10-12T00:28:05.296Z,7.90
2022-10-12T00:29:05.221Z,7.90
2022-10-12T00:30:05.221Z,7.90
2022-10-12T00:31:05.218Z,7.90
2022-10-12T00:32:05.192Z,7.80
2022-10-12T00:33:05.184Z,7.80
2022-10-12T00:34:05.169Z,8.00
2022-10-12T00:35:05.152Z,7.80
2022-10-12T00:36:05.169Z,7.60
2022-10-12T00:37:05.142Z,7.80
2022-10-12T00:38:05.142Z,8.10
2022-10-12T00:39:05.115Z,8.00
2022-10-12T00:40:05.192Z,7.80
2022-10-12T00:41:05.113Z,8.20
2022-10-12T00:42:05.222Z,8.20
2022-10-12T00:43:05.084Z,7.30
2022-10-12T00:44:05.063Z,7.70
2022-10-12T00:45:05.045Z,7.10
2022-10-12T00:46:05.022Z,7.40
2022-10-12T00:47:05.034Z,7.60
2022-10-12T00:48:05.013Z,7.00
2022-10-12T00:49:05.010Z,7.00
2022-10-12T00:50:05.072Z,7.80
2022-10-12T00:51:04.982Z,7.00
2022-10-12T00:52:04.984Z,7.40
2022-10-12T00:53:04.963Z,7.00
2022-10-12T00:54:04.970Z,7.10
2022-10-12T00:55:04.935Z,7.40
2022-10-12T00:56:04.968Z,7.30
2022-10-12T00:57:04.955Z,8.60
2022-10-12T00:58:04.908Z,7.50
2022-10-12T00:59:04.915Z,7.60
2022-10-12T01:00:04.936Z,7.40
2022-10-12T01:01:04.929Z,7.80
2022-10-12T01:02:04.914Z,7.60
2022-10-12T01:03:04.865Z,8.10
2022-10-12T01:04:05.270Z,7.20
2022-10-12T01:05:04.845Z,7.60
2022-10-12T01:06:04.863Z,7.60
2022-10-12T01:07:04.816Z,8.20
2022-10-12T01:08:04.854Z,8.20
2022-10-12T01:09:04.785Z,7.50
2022-10-12T01:10:04.776Z,7.90
2022-10-12T01:11:04.769Z,8.10
2022-10-12T01:12:04.794Z,7.70
2022-10-12T01:13:04.736Z,8.00
2022-10-12T01:14:04.832Z,7.50
2022-10-12T01:15:04.724Z,7.30
2022-10-12T01:16:04.736Z,7.00
2022-10-12T01:17:04.707Z,7.50
2022-10-12T01:18:05.206Z,7.20
2022-10-12T01:19:04.676Z,7.20
2022-10-12T01:20:04.707Z,7.40
2022-10-12T01:21:04.676Z,6.80
2022-10-12T01:22:05.497Z,6.60
2022-10-12T01:23:04.646Z,7.30
2022-10-12T01:24:04.698Z,7.50
2022-10-12T01:25:04.616Z,7.30
2022-10-12T01:26:04.697Z,8.30
2022-10-12T01:27:04.617Z,6.90
2022-10-12T01:28:04.679Z,7.20
2022-10-12T01:29:04.569Z,8.10
2022-10-12T01:30:04.575Z,7.30
2022-10-12T01:31:04.551Z,7.30
2022-10-12T01:32:04.624Z,7.70
2022-10-12T01:33:04.527Z,8.00
2022-10-12T01:34:04.537Z,7.60
2022-10-12T01:35:04.617Z,7.20
2022-10-12T01:36:04.518Z,7.50
2022-10-12T01:37:04.596Z,9.00
2022-10-12T01:38:04.487Z,7.60
2022-10-12T01:39:04.478Z,8.90
2022-10-12T01:40:04.464Z,8.60
2022-10-12T01:41:04.445Z,7.80
2022-10-12T01:42:04.513Z,7.30
2022-10-12T01:43:04.458Z,7.90
2022-10-12T01:44:04.417Z,7.90
2022-10-12T01:45:04.410Z,7.20
2022-10-12T01:46:04.419Z,7.70
2022-10-12T01:47:04.400Z,6.80
2022-10-12T01:48:04.430Z,7.20
2022-10-12T01:49:04.361Z,7.20
2022-10-12T01:50:05.305Z,7.50
2022-10-12T01:51:04.339Z,7.20
2022-10-12T01:52:04.359Z,6.90
2022-10-12T01:53:04.319Z,7.30
2022-10-12T01:54:04.490Z,6.80
2022-10-12T01:55:04.300Z,7.10
2022-10-12T01:56:04.309Z,7.50
2022-10-12T01:57:04.289Z,7.10
2022-10-12T01:58:04.318Z,6.90
2022-10-12T01:59:04.250Z,7.50
2022-10-12T02:00:04.292Z,6.40
2022-10-12T02:01:04.263Z,6.80
2022-10-12T02:02:04.312Z,6.90
2022-10-12T02:03:04.210Z,7.40
2022-10-12T02:04:04.218Z,8.00
2022-10-12T02:05:04.191Z,6.90
2022-10-12T02:06:04.245Z,6.90
2022-10-12T02:07:04.181Z,6.90
2022-10-12T02:08:04.162Z,7.30
2022-10-12T02:09:04.152Z,6.80
2022-10-12T02:10:04.254Z,7.20
2022-10-12T02:11:05.090Z,7.20
2022-10-12T02:12:04.552Z,7.30
2022-10-12T02:13:04.102Z,7.60
2022-10-12T02:14:04.186Z,7.20
2022-10-12T02:15:04.083Z,7.80
2022-10-12T02:16:04.087Z,7.80
2022-10-12T02:17:04.094Z,7.60
2022-10-12T02:18:04.093Z,7.30
2022-10-12T02:19:04.041Z,7.10
2022-10-12T02:20:04.235Z,7.50
2022-10-12T02:21:04.022Z,7.20
2022-10-12T02:22:04.079Z,7.00
2022-10-12T02:23:03.999Z,7.60
2022-10-12T02:24:04.082Z,7.30
2022-10-12T02:25:03.971Z,6.90
2022-10-12T02:26:04.080Z,7.10
2022-10-12T02:27:03.976Z,7.40
2022-10-12T02:28:04.104Z,6.80
2022-10-12T02:29:03.939Z,7.40
2022-10-12T02:30:03.921Z,7.00
2022-10-12T02:31:03.912Z,7.20
2022-10-12T02:32:03.913Z,8.10
2022-10-12T02:33:03.884Z,7.20
2022-10-12T02:34:03.904Z,7.30
2022-10-12T02:35:03.875Z,8.60
2022-10-12T02:36:03.892Z,7.60
2022-10-12T02:37:03.861Z,7.90
2022-10-12T02:38:03.858Z,7.50
2022-10-12T02:39:03.850Z,7.30
2022-10-12T02:40:03.872Z,6.70
2022-10-12T02:41:03.810Z,7.10
2022-10-12T02:42:03.804Z,6.90
2022-10-12T02:43:10.417Z,6.50
2022-10-12T02:44:04.862Z,7.00
2022-10-12T02:45:03.762Z,6.60
2022-10-12T02:46:03.836Z,6.50
2022-10-12T02:47:03.763Z,6.30
2022-10-12T02:48:03.749Z,6.60
2022-10-12T02:49:03.714Z,6.70
2022-10-12T02:50:03.870Z,6.60
2022-10-12T02:51:03.694Z,7.20
2022-10-12T02:52:04.684Z,6.30
2022-10-12T02:53:03.675Z,7.40
2022-10-12T02:54:03.683Z,6.60
2022-10-12T02:55:03.675Z,6.70
2022-10-12T02:56:03.895Z,6.50
2022-10-12T02:57:03.645Z,6.60
2022-10-12T02:58:03.662Z,7.10
2022-10-12T02:59:03.614Z,6.60
2022-10-12T03:00:03.605Z,6.90
2022-10-12T03:01:03.679Z,6.60
2022-10-12T03:02:03.647Z,7.00
2022-10-12T03:03:03.574Z,7.00
2022-10-12T03:04:03.556Z,6.30
2022-10-12T03:05:03.545Z,7.00
2022-10-12T03:06:03.535Z,6.40
2022-10-12T03:07:03.534Z,6.20
2022-10-12T03:08:03.534Z,6.70
2022-10-12T03:09:03.494Z,6.60
2022-10-12T03:10:03.498Z,6.60
2022-10-12T03:11:03.494Z,6.80
2022-10-12T03:12:03.490Z,6.40
2022-10-12T03:13:03.454Z,6.80
2022-10-12T03:14:03.506Z,6.10
2022-10-12T03:15:03.459Z,6.60
2022-10-12T03:16:03.494Z,6.20
2022-10-12T03:17:03.433Z,6.70
2022-10-12T03:18:04.750Z,6.80
2022-10-12T03:19:03.394Z,6.90
2022-10-12T03:20:03.396Z,6.50
2022-10-12T03:21:03.428Z,6.40
2022-10-12T03:22:03.452Z,6.00
2022-10-12T03:23:03.346Z,6.50
2022-10-12T03:24:03.366Z,6.40
2022-10-12T03:25:03.340Z,7.50
2022-10-12T03:26:03.376Z,7.00
2022-10-12T03:27:03.307Z,6.60
2022-10-12T03:28:03.355Z,6.90
2022-10-12T03:29:03.288Z,6.80
2022-10-12T03:30:03.292Z,6.30
2022-10-12T04:28:44.393Z,10.20
2022-10-12T06:03:35.374Z,46.70
2022-10-12T06:04:35.067Z,40.30
2022-10-12T06:30:37.561Z,29.40
2022-10-12T06:31:37.552Z,62.10
2022-10-12T06:32:37.731Z,10.40
2022-10-12T06:33:37.521Z,10.90
2022-10-12T06:34:37.503Z,11.40
2022-10-12T06:35:37.508Z,11.20
2022-10-12T06:36:37.521Z,11.80
2022-10-12T06:37:49.524Z,12.40
2022-10-12T06:38:38.462Z,12.50
2022-10-12T06:39:37.457Z,12.10
2022-10-12T06:40:37.438Z,12.90
2022-10-12T06:41:37.440Z,13.30
2022-10-12T06:42:37.743Z,13.00
2022-10-12T06:43:37.410Z,12.50
2022-10-12T06:44:37.391Z,12.30
2022-10-12T06:45:37.381Z,13.00
2022-10-12T06:46:37.389Z,13.00
2022-10-12T06:47:37.369Z,12.50
2022-10-12T06:48:37.342Z,12.90
2022-10-12T06:49:37.340Z,12.30
2022-10-12T06:50:37.323Z,12.60
2022-10-12T06:51:37.321Z,11.90
2022-10-12T06:52:37.527Z,12.20
2022-10-12T06:53:37.299Z,13.30
2022-10-12T06:54:37.281Z,12.70
2022-10-12T06:55:37.295Z,12.40
2022-10-12T06:56:37.280Z,12.40
2022-10-12T06:57:37.261Z,12.90
2022-10-12T06:58:37.240Z,13.50
2022-10-12T06:59:37.252Z,13.60
2022-10-12T07:00:37.220Z,13.50
2022-10-12T07:01:37.248Z,13.80
2022-10-12T07:02:37.474Z,13.70
2022-10-12T07:03:37.213Z,14.20
2022-10-12T07:04:37.174Z,13.70
2022-10-12T07:05:37.182Z,13.50
2022-10-12T07:06:37.168Z,14.40
2022-10-12T07:07:37.152Z,14.00
2022-10-12T07:08:37.134Z,14.30
2022-10-12T07:09:37.120Z,13.50
2022-10-12T07:10:37.104Z,13.70
2022-10-12T07:11:37.115Z,13.30
2022-10-12T07:12:37.322Z,14.70
2022-10-12T07:13:37.089Z,15.00
2022-10-12T07:14:37.074Z,14.70
2022-10-12T07:15:37.063Z,14.50
2022-10-12T07:16:37.084Z,14.00
2022-10-12T07:17:37.380Z,14.20
2022-10-12T07:18:37.015Z,15.00
2022-10-12T07:19:37.074Z,14.50
2022-10-12T07:20:37.007Z,14.00
2022-10-12T07:21:37.025Z,15.00
2022-10-12T07:22:36.986Z,15.30
2022-10-12T07:23:36.983Z,15.20
2022-10-12T07:24:36.958Z,14.50
2022-10-12T07:25:36.960Z,15.30
2022-10-12T07:26:36.978Z,15.00
2022-10-12T07:27:37.181Z,15.10
2022-10-12T07:28:37.006Z,14.50
2022-10-12T07:29:36.935Z,14.80
2022-10-12T07:30:36.896Z,14.20
2022-10-12T07:31:36.885Z,13.90
2022-10-12T07:32:36.874Z,13.90
2022-10-12T07:33:36.922Z,13.80
2022-10-12T07:34:36.865Z,13.90
2022-10-12T07:35:51.411Z,13.70
2022-10-12T07:36:58.053Z,13.70
2022-10-12T07:37:38.173Z,13.00
2022-10-12T07:38:36.876Z,13.80
2022-10-12T07:39:36.796Z,13.10
2022-10-12T07:40:36.784Z,12.90
2022-10-12T07:41:36.796Z,13.50
2022-10-12T07:42:48.887Z,13.40
2022-10-12T07:43:37.766Z,13.90
2022-10-12T07:44:36.964Z,12.40
2022-10-12T07:45:36.726Z,12.10
2022-10-12T07:46:36.737Z,12.80
2022-10-12T07:47:36.866Z,12.50
2022-10-12T07:48:36.687Z,11.80
2022-10-12T07:49:36.837Z,11.90
2022-10-12T07:50:36.738Z,11.90
2022-10-12T07:51:36.712Z,12.40
2022-10-12T07:52:36.735Z,12.00
2022-10-12T07:53:36.642Z,11.60
2022-10-12T07:54:36.618Z,12.40
2022-10-12T07:55:36.741Z,12.40
2022-10-12T07:56:36.623Z,13.40
2022-10-12T07:57:36.856Z,14.80
2022-10-12T07:58:36.588Z,13.80
2022-10-12T07:59:36.599Z,14.90
2022-10-12T08:00:36.561Z,14.70
2022-10-12T08:01:36.597Z,14.30
2022-10-12T08:02:36.571Z,14.20
2022-10-12T08:03:36.549Z,13.60
2022-10-12T08:04:36.519Z,15.30
2022-10-12T08:05:36.519Z,14.20
2022-10-12T08:06:36.511Z,14.70
2022-10-12T08:07:36.828Z,14.30
2022-10-12T08:08:36.480Z,14.30
2022-10-12T08:09:36.470Z,14.80
2022-10-12T08:10:36.455Z,12.90
2022-10-12T08:11:36.494Z,14.00
2022-10-12T08:12:36.422Z,14.20
2022-10-12T08:13:36.424Z,14.80
2022-10-12T08:14:36.411Z,14.40
2022-10-12T08:15:36.408Z,14.00
2022-10-12T08:16:36.405Z,13.80
2022-10-12T08:17:36.580Z,14.20
2022-10-12T08:18:36.361Z,14.30
2022-10-12T08:19:36.361Z,14.30
2022-10-12T08:20:36.342Z,14.40
2022-10-12T08:21:36.344Z,14.50
2022-10-12T08:22:36.323Z,13.40
2022-10-12T08:23:36.320Z,14.50
2022-10-12T08:24:36.292Z,13.40
2022-10-12T08:25:36.297Z,13.50
2022-10-12T08:26:36.294Z,12.70
2022-10-12T08:27:36.430Z,12.40
2022-10-12T08:28:36.359Z,12.50
2022-10-12T08:29:36.252Z,12.40
2022-10-12T08:30:36.247Z,13.10
2022-10-12T08:31:36.238Z,12.20
2022-10-12T08:32:36.218Z,12.70
2022-10-12T08:33:36.209Z,11.70
2022-10-12T08:34:36.187Z,11.30
2022-10-12T08:35:36.199Z,12.70
2022-10-12T08:36:36.154Z,11.90
2022-10-12T08:37:36.247Z,12.60
2022-10-12T08:38:36.156Z,10.80
2022-10-12T08:39:36.135Z,10.50
2022-10-12T08:40:36.126Z,10.90
2022-10-12T08:41:36.124Z,10.70
2022-10-12T08:42:36.097Z,10.30
2022-10-12T08:43:36.176Z,10.40
2022-10-12T08:44:36.095Z,10.70
2022-10-12T08:45:36.076Z,9.40
2022-10-12T08:46:36.057Z,9.50
2022-10-12T08:47:36.372Z,9.60
2022-10-12T08:48:36.031Z,8.80
2022-10-12T08:49:36.029Z,8.70
2022-10-12T08:50:36.050Z,8.50
2022-10-12T08:51:36.011Z,7.40
2022-10-12T08:52:36.000Z,7.50
2022-10-12T08:53:35.979Z,7.30
2022-10-12T08:54:35.973Z,6.80
2022-10-12T08:55:35.979Z,7.00
2022-10-12T08:56:35.950Z,6.70
2022-10-12T08:57:35.938Z,7.40
2022-10-12T08:58:35.919Z,6.80
2022-10-12T08:59:35.918Z,6.80
2022-10-12T09:00:35.917Z,6.40
2022-10-12T09:01:35.961Z,6.20
2022-10-12T09:02:36.087Z,6.30
2022-10-12T09:03:35.872Z,6.30
2022-10-12T09:04:35.861Z,5.80
2022-10-12T09:05:35.861Z,6.20
2022-10-12T09:06:35.836Z,6.10
2022-10-12T09:07:35.829Z,5.60
2022-10-12T09:08:35.813Z,5.70
2022-10-12T09:09:38.910Z,5.70
2022-10-12T09:10:36.937Z,5.60
2022-10-12T09:11:35.784Z,6.10
2022-10-12T09:12:35.763Z,5.70
2022-10-12T09:13:35.766Z,5.90
2022-10-12T09:14:35.752Z,5.40
2022-10-12T09:15:35.744Z,5.90
2022-10-12T09:16:35.744Z,5.90
2022-10-12T09:17:35.723Z,5.80
2022-10-12T09:18:40.453Z,5.30
2022-10-12T09:19:36.701Z,5.20
2022-10-12T09:20:35.696Z,5.20
2022-10-12T09:21:35.675Z,5.80
2022-10-12T09:22:35.665Z,5.40
2022-10-12T09:23:35.656Z,5.50
2022-10-12T09:24:35.642Z,5.40
2022-10-12T09:25:35.646Z,4.80
2022-10-12T09:26:35.617Z,5.20
2022-10-12T09:27:35.619Z,5.00
2022-10-12T09:28:36.188Z,4.90
2022-10-12T09:29:35.587Z,4.70
2022-10-12T09:30:35.596Z,5.30
2022-10-12T09:31:35.557Z,4.70
2022-10-12T09:32:35.560Z,4.50
2022-10-12T09:33:35.591Z,4.80
2022-10-12T09:34:35.542Z,4.60
2022-10-12T09:35:35.529Z,4.80
2022-10-12T09:36:35.508Z,4.90
2022-10-12T09:37:35.578Z,4.70
2022-10-12T09:38:35.492Z,4.90
2022-10-12T09:39:35.471Z,4.70
2022-10-12T09:40:35.488Z,4.40
2022-10-12T09:41:35.450Z,5.10
2022-10-12T09:42:35.440Z,5.30
2022-10-12T09:43:35.541Z,4.90
2022-10-12T09:44:35.432Z,5.00
2022-10-12T09:45:35.616Z,5.00
2022-10-12T09:46:35.403Z,5.00
2022-10-12T09:47:35.492Z,5.30
2022-10-12T09:48:35.374Z,5.00
2022-10-12T09:49:35.365Z,4.60
2022-10-12T09:50:35.384Z,4.60
2022-10-12T09:51:35.340Z,4.90
2022-10-12T09:52:35.335Z,4.40
2022-10-12T09:53:35.324Z,4.80
2022-10-12T09:54:35.366Z,4.70
2022-10-12T09:55:35.368Z,4.60
2022-10-12T09:56:35.305Z,5.10
2022-10-12T09:57:35.279Z,4.50
2022-10-12T09:58:35.268Z,4.60
2022-10-12T09:59:35.258Z,4.80
2022-10-12T10:00:35.407Z,4.60
2022-10-12T10:01:35.286Z,4.90
2022-10-12T10:02:35.230Z,5.30
2022-10-12T10:03:35.209Z,5.20
2022-10-12T10:04:35.208Z,5.00
2022-10-12T10:05:35.200Z,4.70
2022-10-12T10:06:35.192Z,5.10
2022-10-12T10:07:35.160Z,4.80
2022-10-12T10:08:35.161Z,4.70
2022-10-12T10:09:35.141Z,5.00
2022-10-12T10:10:35.145Z,4.50
2022-10-12T10:11:35.113Z,4.80
2022-10-12T10:12:35.128Z,4.10
2022-10-12T10:13:35.095Z,4.80
2022-10-12T10:14:35.084Z,4.50
2022-10-12T10:15:35.084Z,4.70
2022-10-12T10:16:35.067Z,4.40
2022-10-12T10:17:35.057Z,4.80
2022-10-12T10:18:35.036Z,4.60
2022-10-12T10:19:35.034Z,4.60
2022-10-12T10:20:35.027Z,4.70
2022-10-12T10:21:35.011Z,4.40
2022-10-12T10:22:34.996Z,4.80
2022-10-12T10:23:34.991Z,4.50
2022-10-12T10:24:34.978Z,4.50
2022-10-12T10:25:35.040Z,4.80
2022-10-12T10:26:34.960Z,4.60
2022-10-12T10:27:34.952Z,4.60
2022-10-12T10:28:34.969Z,4.60
2022-10-12T10:29:34.932Z,4.50
2022-10-12T10:30:39.712Z,4.90
2022-10-12T10:31:35.892Z,4.70
2022-10-12T10:32:34.890Z,4.10
2022-10-12T10:33:34.872Z,4.20
2022-10-12T10:34:34.892Z,4.40
2022-10-12T10:35:34.873Z,4.20
2022-10-12T10:36:34.851Z,4.00
2022-10-12T10:37:34.842Z,4.10
2022-10-12T10:38:34.824Z,3.80
2022-10-12T10:39:34.840Z,4.30
2022-10-12T10:40:34.816Z,4.00
2022-10-12T10:41:34.808Z,4.10
2022-10-12T10:42:34.775Z,3.90
2022-10-12T10:43:34.776Z,4.40
2022-10-12T10:44:34.825Z,4.00
2022-10-12T10:45:34.820Z,4.20
2022-10-12T10:46:34.739Z,4.40
2022-10-12T10:47:34.727Z,4.30
2022-10-12T10:48:34.708Z,4.10
2022-10-12T10:49:34.708Z,4.00
2022-10-12T10:50:34.711Z,3.90
2022-10-12T10:51:34.690Z,3.80
2022-10-12T10:52:34.669Z,3.90
2022-10-12T10:53:34.669Z,4.00
2022-10-12T10:54:34.743Z,3.40
2022-10-12T10:55:34.651Z,3.70
2022-10-12T10:56:34.631Z,3.30
2022-10-12T10:57:34.639Z,4.20
2022-10-12T10:58:34.612Z,3.10
2022-10-12T10:59:34.603Z,4.00
2022-10-12T11:00:39.045Z,3.60
2022-10-12T11:01:35.691Z,3.70
2022-10-12T11:02:34.563Z,3.50
2022-10-12T11:03:34.553Z,3.80
2022-10-12T11:04:34.547Z,3.80
2022-10-12T11:05:34.544Z,3.40
2022-10-12T11:06:34.566Z,3.40
2022-10-12T11:07:34.526Z,3.40
2022-10-12T11:08:34.531Z,3.50
2022-10-12T11:09:34.489Z,3.50
2022-10-12T11:10:34.486Z,3.50
2022-10-12T11:11:34.536Z,3.70
2022-10-12T11:12:34.455Z,3.60
2022-10-12T11:13:34.457Z,3.30
2022-10-12T11:14:34.520Z,3.30
2022-10-12T11:15:34.457Z,3.00
2022-10-12T11:16:34.466Z,3.40
2022-10-12T11:17:34.422Z,3.60
2022-10-12T11:18:34.387Z,3.70
2022-10-12T11:19:34.391Z,3.30
2022-10-12T11:20:34.381Z,3.30
2022-10-12T11:21:34.391Z,3.10
2022-10-12T11:22:34.350Z,3.10
2022-10-12T11:23:34.349Z,3.20
2022-10-12T11:24:34.324Z,3.00
2022-10-12T11:25:34.332Z,3.60
2022-10-12T11:26:34.312Z,3.20
2022-10-12T11:27:34.301Z,3.50
2022-10-12T11:28:34.345Z,3.20
2022-10-12T11:29:34.275Z,3.00
2022-10-12T11:30:34.339Z,2.90
2022-10-12T11:31:34.331Z,3.20
2022-10-12T11:32:34.421Z,2.90
2022-10-12T11:33:34.225Z,3.70
2022-10-12T11:34:34.424Z,3.00
2022-10-12T11:35:34.220Z,3.50
2022-10-12T11:36:34.188Z,2.80
2022-10-12T11:37:34.187Z,3.30
2022-10-12T11:38:34.168Z,3.00
2022-10-12T11:39:34.169Z,3.00
2022-10-12T11:41:02.560Z,2.70
2022-10-12T11:41:36.218Z,3.00
2022-10-12T11:42:34.214Z,2.90
2022-10-12T11:43:34.121Z,3.40
2022-10-12T11:44:34.111Z,2.70
2022-10-12T11:45:34.110Z,2.60
2022-10-12T11:46:34.102Z,2.80
2022-10-12T11:47:34.082Z,3.00
2022-10-12T11:48:34.063Z,3.00
2022-10-12T11:49:34.071Z,3.10
2022-10-12T11:50:34.303Z,2.60
2022-10-12T11:51:34.033Z,3.10
2022-10-12T11:52:34.030Z,3.40
2022-10-12T11:53:34.014Z,2.90
2022-10-12T11:54:34.048Z,3.10
2022-10-12T11:55:34.014Z,2.80
2022-10-12T11:56:33.975Z,3.10
2022-10-12T11:57:33.967Z,3.40
2022-10-12T11:58:55.877Z,2.80
2022-10-12T11:59:34.962Z,3.00
2022-10-12T12:00:33.960Z,3.20
2022-10-12T12:01:33.948Z,2.70
2022-10-12T12:02:33.924Z,2.80
2022-10-12T12:03:33.958Z,3.80
2022-10-12T12:04:42.126Z,3.40
2022-10-12T12:05:34.909Z,3.30
2022-10-12T12:06:33.883Z,3.10
2022-10-12T12:07:33.882Z,3.40
2022-10-12T12:08:33.856Z,3.50
2022-10-12T12:09:33.863Z,3.50
2022-10-12T12:10:33.872Z,3.10
2022-10-12T12:11:33.833Z,3.30
2022-10-12T12:12:33.808Z,3.20
2022-10-12T12:13:33.852Z,2.80
2022-10-12T12:14:33.805Z,3.10
2022-10-12T12:15:33.786Z,3.70
2022-10-12T12:16:33.789Z,3.20
2022-10-12T12:17:33.762Z,3.00
2022-10-12T12:18:33.746Z,2.90
2022-10-12T12:19:33.742Z,2.90
2022-10-12T12:20:33.728Z,3.30
2022-10-12T12:21:33.798Z,3.30
2022-10-12T12:22:33.710Z,3.10
2022-10-12T12:23:33.701Z,3.00
2022-10-12T12:24:33.678Z,3.50
2022-10-12T12:25:33.690Z,3.60
2022-10-12T12:26:33.681Z,3.20
2022-10-12T12:27:33.663Z,3.80
2022-10-12T12:28:33.677Z,3.40
2022-10-12T12:29:33.661Z,3.50
2022-10-12T12:30:33.635Z,3.50
2022-10-12T12:31:33.604Z,3.60
2022-10-12T12:32:33.604Z,3.30
2022-10-12T12:33:33.584Z,3.40
2022-10-12T12:34:33.653Z,3.70
2022-10-12T12:35:33.585Z,3.40
2022-10-12T12:36:33.557Z,4.00
2022-10-12T12:37:33.576Z,3.40
2022-10-12T12:38:33.545Z,3.40
2022-10-12T12:39:33.530Z,3.60
2022-10-12T12:40:33.541Z,3.60
2022-10-12T12:41:33.517Z,4.00
2022-10-12T12:42:33.499Z,3.50
2022-10-12T12:43:33.491Z,3.30
2022-10-12T12:44:33.489Z,3.90
2022-10-12T12:45:33.492Z,3.10
2022-10-12T12:46:33.560Z,3.40
2022-10-12T12:47:45.172Z,3.90
2022-10-12T12:48:34.474Z,3.70
2022-10-12T12:49:33.425Z,3.20
2022-10-12T12:50:33.435Z,3.60
2022-10-12T12:51:33.402Z,3.80
2022-10-12T12:52:33.403Z,3.70
2022-10-12T12:53:33.385Z,3.50
2022-10-12T12:54:33.439Z,3.70
2022-10-12T12:55:33.375Z,3.50
2022-10-12T12:56:33.366Z,3.70
2022-10-12T12:57:33.345Z,3.80
2022-10-12T12:58:33.338Z,3.60
2022-10-12T12:59:33.318Z,3.60
2022-10-12T13:00:36.792Z,3.50
2022-10-12T13:01:34.425Z,3.70
2022-10-12T13:02:33.297Z,4.10
2022-10-12T13:03:33.272Z,3.80
2022-10-12T13:04:33.262Z,3.30
2022-10-12T13:05:33.279Z,3.80
2022-10-12T13:06:33.251Z,3.40
2022-10-12T13:07:33.576Z,3.40
2022-10-12T13:08:33.236Z,3.10
2022-10-12T13:09:33.223Z,3.20
2022-10-12T13:10:33.224Z,3.30
2022-10-12T13:11:33.182Z,3.30
2022-10-12T13:12:33.173Z,3.50
2022-10-12T13:13:38.049Z,3.70
2022-10-12T13:14:34.176Z,3.40
2022-10-12T13:15:33.145Z,3.80
2022-10-12T13:17:34.270Z,3.00
2022-10-12T13:18:47.194Z,3.40
2022-10-12T13:19:34.107Z,3.60
2022-10-12T13:20:33.117Z,3.40
2022-10-12T13:21:33.076Z,3.50
2022-10-12T13:22:33.462Z,3.50
2022-10-12T13:23:33.061Z,3.60
2022-10-12T13:24:33.059Z,3.70
2022-10-12T13:25:33.051Z,3.30
2022-10-12T13:26:33.034Z,3.60
2022-10-12T13:27:33.580Z,3.40
2022-10-12T13:28:33.042Z,3.50
2022-10-12T13:29:33.001Z,3.20
2022-10-12T13:30:32.991Z,3.20
2022-10-12T13:31:32.983Z,3.50
2022-10-12T13:32:33.581Z,3.70
2022-10-12T13:33:33.042Z,3.70
2022-10-12T13:34:32.963Z,3.60
2022-10-12T13:35:32.954Z,3.10
2022-10-12T13:36:32.927Z,3.40
2022-10-12T13:37:33.050Z,3.70
2022-10-12T13:38:32.914Z,3.00
2022-10-12T13:39:37.714Z,3.20
2022-10-12T13:40:33.897Z,2.90
2022-10-12T13:41:32.867Z,3.10
2022-10-12T13:42:32.857Z,3.30
2022-10-12T13:43:32.850Z,3.40
2022-10-12T13:44:32.840Z,3.50
2022-10-12T13:45:32.857Z,3.30
2022-10-12T13:46:32.832Z,3.60
2022-10-12T13:47:33.189Z,3.20
2022-10-12T13:48:59.435Z,3.20
2022-10-12T13:49:33.785Z,3.40
2022-10-12T13:50:32.941Z,3.10
2022-10-12T13:51:32.760Z,3.40
2022-10-12T13:52:33.022Z,3.10
2022-10-12T13:53:32.756Z,3.40
2022-10-12T13:54:32.739Z,3.40
2022-10-12T13:55:32.736Z,3.40
2022-10-12T13:56:32.726Z,2.90
2022-10-12T13:57:32.967Z,3.30
2022-10-12T13:58:32.695Z,3.50
2022-10-12T13:59:32.695Z,2.70
2022-10-12T14:00:32.687Z,3.40
2022-10-12T14:01:32.656Z,3.10
2022-10-12T14:02:32.727Z,3.10
2022-10-12T14:03:32.629Z,3.10
2022-10-12T14:04:32.633Z,3.20
2022-10-12T14:05:32.630Z,3.30
2022-10-12T14:06:32.610Z,3.50
2022-10-12T14:07:32.813Z,3.20
2022-10-12T14:08:32.590Z,3.00
2022-10-12T14:09:32.578Z,3.40
2022-10-12T14:10:32.582Z,3.00
2022-10-12T14:11:32.551Z,3.10
2022-10-12T14:12:32.553Z,3.00
2022-10-12T14:13:32.631Z,3.50
2022-10-12T14:14:32.523Z,3.30
2022-10-12T14:15:32.516Z,3.00
2022-10-12T14:16:32.506Z,3.50
2022-10-12T14:17:32.485Z,3.10
2022-10-12T14:18:32.475Z,3.20
2022-10-12T14:19:32.899Z,3.30
2022-10-12T14:20:32.466Z,3.70
2022-10-12T14:21:36.696Z,3.50
2022-10-12T14:22:32.449Z,3.20
2022-10-12T14:23:32.418Z,3.30
2022-10-12T14:24:32.425Z,3.00
2022-10-12T14:25:32.409Z,3.00
2022-10-12T14:26:32.409Z,3.40
2022-10-12T14:27:32.380Z,3.00
2022-10-12T14:28:32.444Z,3.10
2022-10-12T14:29:32.377Z,2.90
2022-10-12T14:30:32.369Z,3.20
2022-10-12T14:31:32.333Z,3.20
2022-10-12T14:32:32.332Z,3.10
2022-10-12T14:33:32.312Z,3.10
2022-10-12T14:34:32.311Z,3.10
2022-10-12T14:35:32.303Z,3.10
2022-10-12T14:36:32.283Z,2.70
2022-10-12T14:37:32.277Z,3.00
2022-10-12T14:38:32.265Z,3.30
2022-10-12T14:39:32.246Z,2.90
2022-10-12T14:40:32.256Z,3.20
2022-10-12T14:41:32.225Z,3.50
2022-10-12T14:42:32.224Z,3.00
2022-10-12T14:43:32.207Z,3.30
2022-10-12T14:44:32.197Z,3.30
2022-10-12T14:45:32.199Z,2.80
2022-10-12T14:46:32.182Z,3.00
2022-10-12T14:47:32.159Z,3.50
2022-10-12T14:48:32.158Z,2.90
2022-10-12T14:49:32.139Z,3.00
2022-10-12T14:50:32.157Z,3.70
2022-10-12T14:51:32.135Z,3.30
2022-10-12T14:52:32.111Z,3.10
2022-10-12T14:53:32.131Z,3.50
2022-10-12T14:54:32.083Z,3.50
2022-10-12T14:55:32.082Z,3.30
2022-10-12T14:56:32.071Z,3.20
2022-10-12T14:57:32.057Z,2.80
2022-10-12T14:58:32.053Z,3.00
2022-10-12T14:59:32.034Z,2.90
2022-10-12T15:00:32.028Z,3.20
2022-10-12T15:01:32.057Z,2.70
2022-10-12T15:02:31.996Z,3.10
2022-10-12T15:03:31.985Z,4.00
2022-10-12T15:04:31.978Z,3.20
2022-10-12T15:05:31.992Z,3.20
2022-10-12T15:06:31.985Z,2.60
2022-10-12T15:07:31.947Z,3.30
2022-10-12T15:08:32.011Z,3.30
2022-10-12T15:09:31.928Z,3.50
2022-10-12T15:10:31.928Z,3.30
2022-10-12T15:11:31.997Z,3.40
2022-10-12T15:12:31.880Z,3.10
2022-10-12T15:13:31.877Z,3.10
2022-10-12T15:14:31.860Z,3.70
2022-10-12T15:15:31.868Z,3.20
2022-10-12T15:16:31.850Z,3.20
2022-10-12T15:17:31.841Z,3.50
2022-10-12T15:18:31.821Z,3.70
2022-10-12T15:19:31.825Z,3.20
2022-10-12T15:20:31.831Z,7.10
2022-10-12T15:21:31.795Z,3.90
2022-10-12T15:22:31.782Z,3.60
2022-10-12T15:23:31.982Z,3.80
2022-10-12T15:24:31.753Z,7.50
2022-10-12T15:25:31.761Z,6.60
2022-10-12T15:26:31.733Z,3.60
2022-10-12T15:27:31.723Z,3.20
2022-10-12T15:28:31.757Z,3.20
2022-10-12T15:29:31.704Z,3.40
2022-10-12T15:30:31.805Z,4.00
2022-10-12T15:31:31.700Z,3.50
2022-10-12T15:32:31.685Z,3.30
2022-10-12T15:33:31.657Z,3.50
2022-10-12T15:34:31.648Z,4.80
2022-10-12T15:35:31.646Z,6.10
2022-10-12T15:36:31.623Z,5.60
2022-10-12T15:37:31.609Z,3.90
2022-10-12T15:38:31.608Z,3.60
2022-10-12T15:39:31.708Z,3.80
2022-10-12T15:40:31.590Z,5.80
2022-10-12T15:41:31.574Z,5.20
2022-10-12T15:42:31.561Z,5.50
2022-10-12T15:43:31.582Z,4.00
2022-10-12T15:44:31.549Z,4.00
2022-10-12T15:45:31.527Z,3.80
2022-10-12T15:46:31.518Z,3.90
2022-10-12T15:47:31.512Z,3.50
2022-10-12T15:48:31.500Z,3.70
2022-10-12T15:49:31.514Z,3.90
2022-10-12T15:50:31.490Z,3.60
2022-10-12T15:51:31.450Z,3.60
2022-10-12T15:52:31.442Z,3.60
2022-10-12T15:53:31.470Z,3.60
2022-10-12T15:54:31.423Z,3.80
2022-10-12T15:55:31.444Z,3.50
2022-10-12T15:56:31.413Z,3.80
2022-10-12T15:57:31.403Z,3.60
2022-10-12T15:58:31.514Z,3.60
2022-10-12T15:59:31.415Z,5.00
2022-10-12T16:00:31.538Z,3.50
2022-10-12T16:01:31.373Z,3.10
2022-10-12T16:02:31.343Z,3.50
2022-10-12T16:03:31.323Z,3.70
2022-10-12T16:04:31.326Z,3.80
2022-10-12T16:05:31.317Z,4.30
2022-10-12T16:06:31.294Z,3.80
2022-10-12T16:07:31.278Z,3.70
2022-10-12T16:08:31.276Z,3.90
2022-10-12T16:09:31.257Z,4.00
2022-10-12T16:10:31.258Z,4.10